LES MASIES DE RODA (Osona)





Hora UTC 21:25
Temperatura 24.5 ºC
Suelo 15 cm 21.3 ºC
Subsuelo 10 cm 26.9 ºC
Humedad 66.0 %
Presión 1016.1 hPa
Pluja 0.0 mm
Velocidad viento 1.1 km/h
Dirección viento N
Radiación solar 0.1 W/m²

Datos diarios 2024-07-24



Hora UTC (invierno +1h; verano +2h)
Temperatura (ºC) Humedad (%) Presión (hPa) Velocidad viento (km/h) Precipitación (mm) Radiación solar (W/m²)
Hora UTC Aire Suelo 15 cm Subsuelo 10 cm Humedad Presión Vel. Dir. Vel. Max Dir. Intent. máx 5 min. Rad. Sol.
00:05 21.2 18.2 25.2 78.5 1019.9 0.0 NNE 0.0 N 0.0 0.1
00:10 21.1 18.1 25.1 78.7 1019.9 0.0 NNE 0.0 N 0.0 0.1
00:15 21.0 17.9 25.1 79.8 1019.9 1.2 WNW 2.8 WNW 0.0 0.1
00:20 21.0 17.9 25.0 80.7 1019.9 1.3 SSW 2.8 W 0.0 0.1
00:25 21.1 17.7 25.0 78.8 1019.8 2.1 SE 4.2 SE 0.0 0.1
00:30 21.1 17.8 24.9 78.3 1019.8 0.5 NE 2.5 NE 0.0 0.1
00:35 20.8 17.7 24.9 79.9 1019.8 0.0 NNE 0.0 NE 0.0 0.1
00:40 20.7 17.7 24.8 79.8 1019.7 0.0 NNE 0.0 NE 0.0 0.1
00:45 20.6 17.5 24.8 80.1 1019.7 0.0 NNE 0.0 NE 0.0 0.1
00:50 20.4 17.4 24.7 80.5 1019.7 0.0 NNE 0.0 NE 0.0 0.1
00:55 20.1 17.3 24.7 81.1 1019.7 0.0 NNE 0.0 NE 0.0 0.1
01:00 20.0 17.2 24.6 81.4 1019.7 0.0 NNE 0.0 NE 0.0 0.1
01:05 19.9 17.1 24.6 81.8 1019.6 0.0 NNE 0.0 NE 0.0 0.1
01:10 19.9 17.0 24.5 82.3 1019.6 0.2 NE 3.2 NE 0.0 0.1
01:15 20.0 16.9 24.5 81.9 1019.6 2.9 ENE 4.2 NE 0.0 0.1
01:20 20.2 16.8 24.5 81.2 1019.7 4.7 ESE 6.0 SE 0.0 0.1
01:25 20.3 16.9 24.4 80.3 1019.7 3.2 ESE 5.3 ESE 0.0 0.1
01:30 20.4 17.0 24.4 80.3 1019.7 3.8 ESE 5.3 ESE 0.0 0.1
01:35 20.4 17.1 24.3 80.2 1019.7 1.3 ENE 3.2 ESE 0.0 0.1
01:40 20.3 17.1 24.3 80.6 1019.6 0.0 NE 1.1 NE 0.0 0.1
01:45 20.1 17.1 24.3 81.4 1019.6 0.0 NNE 0.0 NE 0.0 0.1
01:50 19.9 17.0 24.3 82.6 1019.6 0.0 NNE 0.0 NE 0.0 0.1
01:55 19.7 16.9 24.2 83.6 1019.6 0.0 NNE 0.0 NNW 0.0 0.1
02:00 19.6 16.7 24.2 83.7 1019.5 0.0 NNE 0.0 NNW 0.0 0.1
02:05 19.6 16.7 24.2 83.9 1019.5 0.0 NNE 0.0 NNW 0.0 0.1
02:10 19.5 16.7 24.1 83.8 1019.5 0.0 NNE 0.0 NNW 0.0 0.1
02:15 19.3 16.5 24.1 83.6 1019.5 0.0 NNE 0.0 NNW 0.0 0.1
02:20 19.1 16.4 24.1 85.1 1019.4 0.0 NNE 0.0 NNW 0.0 0.1
02:25 19.2 16.3 24.1 85.9 1019.4 0.0 NNE 0.0 NNW 0.0 0.1
02:30 19.0 16.3 24.1 85.0 1019.3 0.0 NNE 0.0 NNW 0.0 0.1
02:35 18.9 16.2 24.1 86.6 1019.3 0.3 E 2.5 E 0.0 0.1
02:40 18.9 16.2 24.0 86.8 1019.3 0.0 NNE 0.0 E 0.0 0.1
02:45 18.8 16.2 24.0 86.8 1019.3 0.0 NNE 0.0 ENE 0.0 0.1
02:50 18.5 16.1 24.0 86.9 1019.3 0.0 NNE 0.0 ENE 0.0 0.1
02:55 18.5 16.0 24.0 87.4 1019.2 0.0 NNE 0.0 NNW 0.0 0.1
03:00 18.5 15.8 23.9 87.4 1019.2 2.2 ESE 4.6 ESE 0.0 0.1
03:05 18.7 15.8 23.9 87.9 1019.2 2.4 ESE 3.9 ESE 0.0 0.1
03:10 18.7 16.0 23.9 87.1 1019.2 0.0 NNE 0.0 ESE 0.0 0.1
03:15 18.5 15.9 23.9 88.0 1019.1 0.0 NNE 0.0 ESE 0.0 0.1
03:20 18.5 15.8 23.8 88.1 1019.1 0.2 ESE 2.1 ESE 0.0 0.1
03:25 18.5 15.8 23.8 88.0 1019.1 0.5 NE 3.2 NE 0.0 0.1
03:30 18.5 15.7 23.8 88.3 1019.1 2.4 ENE 4.2 ENE 0.0 0.1
03:35 18.3 15.7 23.8 87.4 1019.2 0.0 NNE 0.0 ENE 0.0 0.1
03:40 18.1 15.6 23.7 88.6 1019.2 0.0 NNE 0.0 ENE 0.0 0.1
03:45 18.1 15.6 23.7 88.8 1019.2 1.3 E 3.9 E 0.0 0.1
03:50 18.1 15.5 23.7 89.0 1019.2 0.8 E 3.9 E 0.0 0.1
03:55 18.0 15.5 23.7 88.9 1019.2 0.0 NNE 0.0 E 0.0 0.1
04:00 18.0 15.4 23.6 89.5 1019.2 0.0 NNE 0.0 E 0.0 0.1
04:05 18.1 15.3 23.6 89.6 1019.2 0.8 E 2.5 E 0.0 0.1
04:10 18.1 15.4 23.6 89.0 1019.3 1.1 ESE 3.5 E 0.0 0.1
04:15 18.1 15.4 23.6 89.0 1019.2 1.3 ESE 3.2 ESE 0.0 0.1
04:20 17.8 15.3 23.5 89.2 1019.3 1.7 NNW 3.2 NW 0.0 0.2
04:25 17.6 15.1 23.5 90.1 1019.3 0.5 NNW 2.5 NNW 0.0 0.6
04:30 17.7 15.1 23.5 90.6 1019.3 0.0 NNE 0.0 NNW 0.0 1.3
04:35 17.6 15.1 23.4 90.2 1019.3 0.0 NNE 0.0 NNW 0.0 2.4
04:40 17.7 15.2 23.4 90.6 1019.3 0.0 NNE 0.0 NNW 0.0 4.0
04:45 17.6 15.2 23.4 89.9 1019.3 0.1 NE 1.8 NE 0.0 6.0
04:50 17.6 15.1 23.4 90.6 1019.2 0.4 ENE 2.1 E 0.0 8.2
04:55 17.4 15.1 23.3 90.2 1019.2 0.3 NNE 2.1 N 0.0 10.4
05:00 17.4 15.1 23.3 90.7 1019.3 0.7 E 2.8 E 0.0 13.0
05:05 17.5 15.1 23.3 91.1 1019.3 1.8 ENE 3.2 E 0.0 16.9
05:10 17.7 15.3 23.3 90.9 1019.2 1.5 ENE 3.2 ENE 0.0 18.3
05:15 17.7 15.5 23.2 90.0 1019.2 0.0 NNE 0.0 NE 0.0 20.1
05:20 17.6 15.5 23.2 89.9 1019.2 0.3 ESE 2.1 ESE 0.0 22.3
05:25 17.6 15.5 23.2 90.5 1019.2 0.5 ESE 2.1 ESE 0.0 25.8
05:30 17.8 15.6 23.2 90.7 1019.2 1.2 S 3.5 SSE 0.0 26.8
05:35 17.9 15.8 23.2 90.4 1019.3 2.4 WNW 4.6 NW 0.0 29.8
05:40 17.9 16.0 23.2 90.9 1019.3 0.8 NW 3.2 NW 0.0 30.9
05:45 18.0 16.1 23.1 91.0 1019.3 0.2 SSW 2.1 S 0.0 35.7
05:50 18.2 16.4 23.1 91.1 1019.3 0.2 SSW 2.5 SW 0.0 36.9
05:55 18.5 16.6 23.1 91.3 1019.4 2.5 WSW 4.2 SSW 0.0 46.9
06:00 19.0 17.0 23.1 89.7 1019.4 0.9 W 3.9 NW 0.0 90.8
06:05 19.4 17.2 23.1 88.0 1019.4 0.5 W 2.8 W 0.0 148.7
06:10 20.0 17.6 23.1 85.4 1019.3 3.0 NE 5.3 NE 0.0 164.0
06:15 20.5 18.2 23.1 83.1 1019.3 3.4 ENE 6.0 NE 0.0 178.7
06:20 21.0 18.7 23.0 80.5 1019.3 2.8 NE 6.0 NE 0.0 194.4
06:25 21.3 19.1 23.1 78.9 1019.3 5.2 ENE 7.4 NE 0.0 208.3
06:30 21.5 19.6 23.1 78.2 1019.3 5.5 NE 8.1 ENE 0.0 223.5
06:35 21.9 20.0 23.1 77.5 1019.3 1.7 NE 5.3 N 0.0 238.9
06:40 22.4 20.5 23.1 75.1 1019.3 3.0 NE 5.3 ENE 0.0 252.6
06:45 22.8 21.0 23.1 74.0 1019.3 2.9 E 6.0 NE 0.0 267.1
06:50 23.0 21.5 23.1 73.1 1019.3 3.5 NE 6.0 NNE 0.0 281.5
06:55 23.2 22.0 23.1 72.4 1019.3 3.5 NNE 5.7 NE 0.0 295.8
07:00 23.5 22.5 23.1 72.0 1019.3 4.2 NE 8.5 NE 0.0 310.5
07:05 23.8 23.0 23.1 70.5 1019.3 2.8 NE 6.4 ENE 0.0 325.5
07:10 24.1 23.5 23.2 69.4 1019.3 1.9 ENE 5.3 NE 0.0 340.2
07:15 24.2 23.8 23.2 69.1 1019.3 3.1 SE 5.3 SE 0.0 355.2
07:20 24.5 24.4 23.2 68.3 1019.3 2.6 E 5.0 ESE 0.0 370.0
07:25 24.9 24.9 23.3 66.9 1019.2 0.8 E 3.5 E 0.0 384.4
07:30 25.2 25.2 23.3 67.5 1019.2 3.6 WNW 5.7 NNW 0.0 398.3
07:35 25.1 25.5 23.3 68.3 1019.2 3.5 W 5.7 WNW 0.0 411.7
07:40 25.4 25.7 23.4 67.2 1019.1 2.3 WNW 4.6 W 0.0 425.2
07:45 25.7 25.9 23.4 65.6 1019.1 0.2 W 2.1 W 0.0 438.7
07:50 26.2 26.1 23.5 63.1 1019.1 1.1 ESE 3.5 ESE 0.0 453.0
07:55 26.8 26.8 23.6 62.0 1019.1 2.3 NW 5.3 W 0.0 466.8
08:00 26.7 27.1 23.7 61.8 1019.1 1.7 WSW 5.0 W 0.0 481.1
08:05 27.0 27.4 23.8 60.2 1019.0 0.5 WSW 3.5 SW 0.0 494.5
08:10 27.4 27.9 23.9 59.0 1019.0 4.1 SW 7.4 WSW 0.0 435.6
08:15 27.4 28.2 24.0 58.6 1018.9 5.1 WSW 8.5 W 0.0 520.6
08:20 27.4 28.7 24.1 59.8 1018.9 3.9 W 7.8 W 0.0 534.0
08:25 27.8 28.9 24.2 56.9 1018.8 2.9 SW 6.7 S 0.0 546.8
08:30 27.9 29.1 24.3 54.8 1018.7 6.1 SSE 10.3 SSE 0.0 560.1
08:35 27.9 29.2 24.5 55.6 1018.7 3.6 SSW 6.4 SSE 0.0 571.9
08:40 28.2 29.4 24.6 54.3 1018.7 4.2 SSW 7.8 SSW 0.0 584.7
08:45 28.5 29.6 24.7 52.3 1018.6 6.0 SSW 9.2 S 0.0 597.6
08:50 28.8 30.0 24.8 49.8 1018.6 2.8 S 6.7 SSW 0.0 608.5
08:55 29.2 30.4 24.9 49.8 1018.5 4.5 WSW 8.1 SW 0.0 621.1
09:00 29.4 30.5 25.0 48.1 1018.4 3.8 SSE 7.4 SE 0.0 631.4
09:05 29.5 30.9 25.1 47.2 1018.4 3.8 ESE 9.9 SSE 0.0 643.1
09:10 29.8 31.1 25.3 46.6 1018.4 4.0 SE 7.4 SSE 0.0 655.5
09:15 30.1 31.5 25.4 46.6 1018.4 2.0 N 5.7 NNW 0.0 665.8
09:20 30.1 31.7 25.5 47.4 1018.3 3.9 WSW 7.1 SSW 0.0 677.5
09:25 30.1 31.9 25.6 46.7 1018.3 4.9 NW 8.1 SW 0.0 687.9
09:30 30.4 32.0 25.7 45.8 1018.3 5.8 SW 10.3 SSW 0.0 698.7
09:35 30.5 32.6 25.8 44.4 1018.2 2.0 NE 5.3 NE 0.0 706.9
09:40 30.6 32.9 25.9 45.2 1018.1 3.3 W 7.4 WNW 0.0 716.5
09:45 30.7 32.5 26.0 44.2 1018.1 4.0 S 7.4 SSW 0.0 726.2
09:50 30.7 33.1 26.1 43.4 1018.1 3.7 N 7.1 NE 0.0 736.5
09:55 30.9 33.6 26.2 45.2 1018.0 5.8 W 8.8 WSW 0.0 750.6
10:00 31.1 34.3 26.3 44.5 1017.9 5.9 W 9.2 WNW 0.0 758.1
10:05 31.4 34.3 26.4 42.5 1017.9 4.2 W 9.5 W 0.0 764.1
10:10 31.4 34.4 26.5 40.8 1017.9 4.3 ESE 13.1 SE 0.0 771.6
10:15 31.3 34.6 26.7 40.0 1017.8 6.8 ESE 12.7 SE 0.0 780.5
10:20 31.5 35.2 26.8 39.4 1017.8 5.7 ESE 10.6 ESE 0.0 790.9
10:25 31.5 35.4 27.0 38.9 1017.7 4.7 E 9.5 ENE 0.0 795.2
10:30 31.8 35.4 27.1 40.3 1017.6 2.9 ESE 7.8 ENE 0.0 804.0
10:35 32.3 35.7 27.3 40.3 1017.5 3.8 S 9.5 S 0.0 810.0
10:40 32.5 35.8 27.4 39.1 1017.5 3.8 SW 7.1 SW 0.0 819.0
10:45 32.6 36.2 27.5 37.9 1017.4 3.6 SSE 7.1 S 0.0 825.0
10:50 32.5 35.9 27.7 37.3 1017.4 6.0 S 9.5 S 0.0 829.0
10:55 32.3 36.1 27.8 37.6 1017.3 4.6 S 7.8 S 0.0 837.0
11:00 32.6 36.4 27.9 37.4 1017.2 5.3 SSW 12.4 SSW 0.0 843.0
11:05 32.5 35.7 28.0 37.5 1017.2 5.0 WSW 11.3 WNW 0.0 848.0
11:10 32.7 37.1 28.1 37.6 1017.1 7.4 W 13.8 WSW 0.0 853.0
11:15 33.0 37.4 28.3 36.5 1017.0 3.7 S 11.0 SSE 0.0 854.0
11:20 33.1 37.3 28.4 35.0 1017.0 7.9 SE 14.1 S 0.0 855.0
11:25 32.9 37.0 28.5 35.3 1017.1 3.7 SE 10.3 S 0.0 859.0
11:30 33.0 38.1 28.6 36.4 1017.0 2.7 NNW 6.0 SE 0.0 865.0
11:35 33.2 37.7 28.7 33.9 1016.9 10.8 SSE 20.1 SSE 0.0 872.0
11:40 33.6 36.9 28.8 34.1 1016.8 9.1 S 17.7 S 0.0 876.0
11:45 33.8 37.2 28.9 34.6 1016.8 10.5 SW 20.1 SW 0.0 878.0
11:50 33.6 37.0 29.0 34.2 1016.7 10.4 S 16.6 SSW 0.0 879.0
11:55 33.6 37.7 29.1 32.9 1016.7 6.4 ESE 11.7 ESE 0.0 873.0
12:00 33.6 38.3 29.2 33.3 1016.5 5.6 SE 11.0 S 0.0 874.0
12:05 34.0 38.3 29.3 33.5 1016.4 6.5 S 15.2 SSE 0.0 874.0
12:10 34.2 37.5 29.4 32.7 1016.4 10.9 S 18.4 SSE 0.0 875.0
12:15 34.1 37.1 29.5 32.3 1016.3 12.5 S 19.8 SSW 0.0 873.0
12:20 34.1 37.5 29.6 32.3 1016.3 11.8 SW 17.7 WSW 0.0 875.0
12:25 34.3 38.4 29.6 33.2 1016.3 7.5 SW 14.1 SW 0.0 872.0
12:30 34.3 38.8 29.7 31.6 1016.2 5.7 ESE 11.3 ENE 0.0 868.0
12:35 34.1 39.0 29.8 32.8 1016.2 7.7 SSW 17.0 WSW 0.0 866.0
12:40 34.4 38.5 29.9 31.8 1016.2 10.3 SW 19.1 WSW 0.0 865.0
12:45 34.5 38.6 30.0 31.7 1016.1 5.7 SSW 17.7 SSW 0.0 864.0
12:50 34.9 39.1 30.1 32.0 1016.1 6.6 WSW 12.4 WNW 0.0 860.0
12:55 34.8 39.9 30.2 31.8 1016.0 5.4 NNE 9.9 NE 0.0 857.0
13:00 34.9 39.3 30.2 30.8 1015.9 6.9 SSW 14.5 S 0.0 854.0
13:05 35.0 39.6 30.3 30.7 1015.9 6.4 S 13.8 S 0.0 846.0
13:10 35.0 39.4 30.4 30.3 1015.8 6.8 SSE 13.8 S 0.0 849.0
13:15 34.9 39.1 30.5 29.6 1015.8 7.0 ESE 14.1 SSE 0.0 842.0
13:20 35.1 40.4 30.6 31.6 1015.7 6.9 W 13.1 W 0.0 838.0
13:25 35.2 40.1 30.7 31.7 1015.7 10.1 WSW 17.3 SW 0.0 749.9
13:30 35.3 39.7 30.8 30.9 1015.7 7.4 S 18.4 SW 0.0 836.0
13:35 35.2 39.0 30.8 31.4 1015.6 6.0 SW 14.8 SSW 0.0 839.0
13:40 35.3 39.6 30.9 36.0 1015.6 7.1 SE 18.7 SE 0.0 829.0
13:45 34.3 38.6 31.0 40.9 1015.6 13.7 SE 28.6 ESE 0.0 812.0
13:50 34.2 39.4 31.1 40.9 1015.6 10.9 ESE 23.7 ESE 0.0 831.0
13:55 34.3 39.7 31.1 41.5 1015.6 11.5 SE 20.5 SE 0.0 820.0
14:00 34.1 39.0 31.2 42.6 1015.6 11.9 ESE 20.5 ESE 0.0 673.8
14:05 33.5 36.3 31.3 44.3 1015.5 15.1 ESE 26.8 ESE 0.0 391.3
14:10 33.4 36.4 31.3 44.8 1015.6 13.2 SE 25.1 ESE 0.0 742.8
14:15 33.8 38.1 31.2 44.1 1015.6 12.2 SE 21.5 ESE 0.0 671.8
14:20 33.5 38.3 31.3 44.3 1015.5 13.4 ESE 23.3 E 0.0 820.0
14:25 33.4 39.0 31.3 44.2 1015.4 13.6 ESE 25.8 ESE 0.0 827.0
14:30 33.4 39.1 31.3 45.3 1015.4 14.5 ESE 25.4 SE 0.0 818.0
14:35 33.3 39.3 31.4 45.9 1015.3 12.5 ESE 23.3 E 0.0 750.6
14:40 33.1 37.7 31.5 46.3 1015.3 13.2 ESE 24.4 ESE 0.0 466.3
14:45 32.9 35.6 31.5 46.4 1015.4 12.1 ESE 26.1 ESE 0.0 333.3
14:50 32.7 34.1 31.4 47.3 1015.4 12.7 SE 25.4 ESE 0.0 399.6
14:55 32.7 36.2 31.3 47.6 1015.4 10.0 SE 22.2 ESE 0.0 729.7
15:00 32.8 37.3 31.3 46.7 1015.4 12.1 SE 23.0 SE 0.0 697.0
15:05 32.7 35.0 31.3 46.9 1015.3 11.9 ESE 23.7 ESE 0.0 248.7
15:10 32.4 34.4 31.3 48.4 1015.3 13.7 SE 22.6 ESE 0.0 481.1
15:15 32.4 35.2 31.2 48.1 1015.3 14.0 ESE 25.1 SE 0.0 582.9
15:20 32.6 35.6 31.2 48.0 1015.3 12.7 ESE 21.5 ESE 0.0 619.2
15:25 32.5 35.9 31.2 47.7 1015.3 15.8 ESE 27.9 ESE 0.0 557.8
15:30 32.4 35.8 31.1 47.6 1015.3 13.3 ESE 24.4 SE 0.0 617.8
15:35 32.6 36.3 31.1 46.6 1015.2 13.4 ESE 28.9 ESE 0.0 597.9
15:40 32.4 36.0 31.1 46.4 1015.2 12.7 SE 23.3 SE 0.0 591.4
15:45 32.5 36.3 31.1 46.4 1015.2 10.5 ESE 19.1 SE 0.0 569.7
15:50 32.6 36.3 31.1 46.2 1015.2 12.4 ESE 24.0 ESE 0.0 512.6
15:55 32.4 35.1 31.1 46.5 1015.2 11.3 ESE 21.9 ESE 0.0 331.8
16:00 32.1 33.8 31.1 46.7 1015.2 11.6 ESE 20.5 E 0.0 389.4
16:05 32.1 34.2 31.0 46.8 1015.2 11.4 ESE 21.2 ESE 0.0 334.6
16:10 31.9 32.4 31.0 46.9 1015.1 9.3 ESE 16.6 E 0.0 131.6
16:15 31.6 30.8 30.9 47.3 1015.1 11.3 ESE 22.2 E 0.0 135.1
16:20 31.7 31.5 30.8 47.7 1015.1 6.3 E 16.6 ENE 0.0 242.9
16:25 31.7 31.2 30.7 47.2 1015.1 6.8 E 15.5 NE 0.0 193.2
16:30 31.8 32.1 30.6 47.1 1015.1 11.0 ESE 20.8 ESE 0.0 368.9
16:35 31.9 33.1 30.6 46.6 1015.0 13.3 ESE 23.3 SE 0.0 413.3
16:40 31.8 33.5 30.5 47.0 1015.0 10.1 ESE 17.3 ESE 0.0 388.5
16:45 32.0 33.8 30.5 46.8 1015.0 7.9 ESE 15.9 SE 0.0 365.8
16:50 32.0 33.6 30.4 47.1 1014.9 10.9 ESE 17.3 ESE 0.0 354.6
16:55 31.9 33.3 30.4 47.7 1014.9 9.2 SE 15.9 ESE 0.0 341.3
17:00 31.8 33.1 30.4 48.1 1014.9 9.8 SE 19.4 ESE 0.0 328.9
17:05 31.7 32.8 30.3 48.5 1015.0 10.0 ESE 16.6 ESE 0.0 313.4
17:10 31.7 32.6 30.3 48.7 1015.0 9.0 SE 17.3 E 0.0 294.7
17:15 31.5 32.1 30.3 49.7 1015.0 10.1 SSE 23.3 SE 0.0 271.2
17:20 31.4 31.9 30.2 50.3 1015.0 8.6 SE 23.0 SE 0.0 249.9
17:25 31.2 31.5 30.2 50.7 1015.0 9.7 SE 16.2 SSE 0.0 242.1
17:30 31.0 30.9 30.1 51.3 1015.1 10.4 SE 18.4 S 0.0 179.8
17:35 30.8 29.8 30.0 51.7 1015.1 7.9 ESE 15.9 SE 0.0 80.5
17:40 30.5 29.0 30.0 52.3 1015.1 10.6 SE 18.7 SE 0.0 68.7
17:45 30.3 28.9 29.9 52.7 1015.1 8.8 ESE 17.7 ESE 0.0 128.9
17:50 30.4 29.4 29.8 52.4 1015.1 9.8 SE 17.7 ESE 0.0 166.1
17:55 30.3 29.5 29.7 52.5 1015.1 9.1 SE 18.4 SE 0.0 153.2
18:00 30.2 29.4 29.6 52.4 1015.1 9.4 SE 19.4 ESE 0.0 141.8
18:05 30.0 29.1 29.6 53.0 1015.2 10.0 SE 18.7 E 0.0 129.7
18:10 29.9 28.7 29.5 53.7 1015.2 10.6 SE 20.5 E 0.0 119.9
18:15 29.8 28.2 29.4 53.9 1015.3 8.7 SE 19.1 SE 0.0 108.4
18:20 29.8 27.8 29.4 53.9 1015.3 7.5 SE 14.5 SSE 0.0 95.1
18:25 29.7 27.6 29.3 53.9 1015.3 6.1 SE 13.1 ESE 0.0 83.7
18:30 29.6 27.3 29.2 53.8 1015.4 7.4 SE 19.1 E 0.0 73.8
18:35 29.3 27.1 29.1 54.2 1015.4 8.2 SE 17.7 ESE 0.0 63.8
18:40 29.2 27.0 29.1 54.3 1015.5 6.2 SE 13.8 SE 0.0 55.6
18:45 29.2 26.8 29.0 54.5 1015.5 6.3 SE 16.2 SE 0.0 45.0
18:50 29.0 26.7 28.9 54.9 1015.5 6.3 SE 13.4 SE 0.0 35.1
18:55 28.8 26.5 28.8 55.4 1015.5 8.6 SE 14.8 SSE 0.0 25.2
19:00 28.7 26.3 28.8 55.8 1015.5 6.1 SE 11.0 E 0.0 18.2
19:05 28.5 26.4 28.7 56.2 1015.6 7.0 SE 13.4 SE 0.0 14.1
19:10 28.4 26.2 28.6 56.7 1015.6 5.7 SSE 12.4 SSE 0.0 10.0
19:15 28.3 26.0 28.5 56.9 1015.6 6.8 SSE 14.8 E 0.0 5.7
19:20 28.2 26.0 28.5 57.1 1015.7 5.6 SSE 10.3 SE 0.0 3.9
19:25 28.1 25.7 28.4 57.3 1015.7 4.9 SSE 11.0 SSE 0.0 2.5
19:30 28.0 25.6 28.3 57.6 1015.7 5.6 SSE 9.9 S 0.0 1.5
19:35 28.0 25.5 28.3 57.8 1015.8 6.2 SSE 11.7 S 0.0 0.8
19:40 27.9 25.5 28.2 58.1 1015.8 4.4 SSE 11.3 S 0.0 0.4
19:45 27.9 25.1 28.1 58.3 1015.8 3.5 SE 8.1 SSE 0.0 0.2
19:50 27.8 25.0 28.1 57.8 1015.9 4.2 SSW 6.7 S 0.0 0.1
19:55 27.6 24.9 28.0 56.0 1015.9 3.4 SSW 5.0 SSE 0.0 0.1
20:00 27.4 24.6 28.0 56.8 1015.9 0.3 WSW 2.5 WSW 0.0 0.1
20:05 27.1 24.3 27.9 58.2 1015.9 2.4 S 6.4 SSE 0.0 0.1
20:10 26.9 24.1 27.9 58.0 1016.0 2.1 SW 5.0 SSW 0.0 0.1
20:15 26.7 23.8 27.8 58.8 1016.0 3.3 SW 6.0 SW 0.0 0.1
20:20 26.6 23.6 27.8 58.9 1016.0 1.2 SSW 4.2 S 0.0 0.1
20:25 26.6 23.6 27.7 61.8 1016.0 3.6 S 7.4 S 0.0 0.1
20:30 26.6 23.9 27.7 60.9 1016.0 2.1 SW 6.0 S 0.0 0.1
20:35 26.3 23.3 27.6 60.8 1016.1 2.0 SSW 6.0 S 0.0 0.1
20:40 26.0 23.0 27.5 61.4 1016.1 2.7 WNW 4.2 W 0.0 0.1
20:45 25.7 22.6 27.5 62.5 1016.1 3.7 W 5.3 W 0.0 0.1
20:50 25.5 22.3 27.4 62.4 1016.1 2.2 W 4.2 WSW 0.0 0.1
20:55 25.3 22.1 27.3 63.1 1016.1 2.4 W 4.2 WNW 0.0 0.1
21:00 25.1 21.9 27.2 63.7 1016.0 2.3 WNW 4.2 WSW 0.0 0.1
21:05 24.9 21.7 27.2 64.6 1016.0 2.0 WNW 3.9 W 0.0 0.1
21:10 24.8 21.6 27.1 64.5 1016.1 1.6 NNW 3.9 NNW 0.0 0.1
21:15 24.6 21.4 27.0 65.8 1016.1 3.2 N 5.3 N 0.0 0.1
21:20 24.5 21.3 27.0 66.0 1016.1 3.4 N 4.6 N 0.0 0.1
21:25 24.5 21.3 26.9 66.0 1016.1 1.1 N 3.5 NNW 0.0 0.1
Máxima 35.4 40.4 31.5 91.3 1019.9 15.8 ESE 28.9 ESE 0.0 879.0
Mínima 17.3 15.1 20 29.6 1014.9
Total 0.0